Airfield :
LOGIN :

Register | Disclaimer

   EN    FR    IT 

 










Legend :    VFR   Marginal VFR   IFR   Intensive IFR   Very Intensive IFR
Visi :
Ceiling :
>= 8 km
>= 3000ft
5 to 8 km
1000 to 3000 ft
1500m to 5 km
500 to 1000 ft
800 to 1500m
200 to 500 ft
< 800m
< 200 ft
Symbols :   Thunderstorms  Fog  Heavy snow  Heavy precipitations  Wind > 20 kt
SIGMETs :     Misc.  Thunderstorms  Icing  Turbulence  Mountain Waves  Volcanic Ashes







- Airport Elevation : 19 ft
- IATA code : LCY
- Download approach charts


EGLC - London City

CURRENT METAR :
  • 150020Z AUTO 23008KT 9999 NCD 04/01 Q0990

EXPIRED METARs :
  • 142350Z AUTO 25009KT 9999 NCD 04/01 Q0989
  • 142320Z AUTO 25010KT 9999 SCT014 04/01 Q0989
  • 142250Z AUTO 25011KT 9999 FEW015 SCT033 04/01 Q0989
  • 142220Z AUTO 25010KT 9999 BKN032 04/01 Q0989
  • 142150Z AUTO 24007KT 9999 FEW044 04/01 Q0989

Expired Forecast.
ATIS : +44 20 7646 0224
No reported NOTAMs for that airfield.
1 SIGMET reported for the London FIR (EGTT) :
 
Severe turbulence
EGTT SIGMET 06 VALID 142300/150300 EGRR
EGTT LONDON FIR SEV TURB FCST SW OF LINE N5100 W00800 - N4934 W00416 SFC/FL060 STNR NC=



MET'MAP, your aeronautical weather chart ! - Copyright ORBIFLY December 2007 - Disclaimer

ORBIFLY MET'MAP TEAM :

Programming & Development : Alexandra Zaïnal
Concept & Development : Baudouin d'Aumeries
Co-Development & Prog : Marc-Olivier Méhu
Technical & hardware support : Manuel Goepfert

Contact : metmap@orbifly.com




SOURCES & CREDITS :

   NOAA